createdAt,value
2023-04-26T00:00:11.955Z,341.36
2023-04-26T00:00:57.586Z,341.36
2023-04-26T00:01:42.379Z,341.36
2023-04-26T00:02:27.207Z,341.36
2023-04-26T00:03:12.573Z,341.36
2023-04-26T00:03:57.325Z,95.43
2023-04-26T00:04:42.824Z,95.43
2023-04-26T00:05:27.298Z,88.75
2023-04-26T00:06:13.082Z,91.72
2023-04-26T00:06:57.427Z,83.97
2023-04-26T00:07:42.375Z,115.89
2023-04-26T00:08:27.628Z,135.86
2023-04-26T00:09:12.653Z,153.18
2023-04-26T00:09:57.744Z,133.03
2023-04-26T00:10:42.499Z,122.82
2023-04-26T00:11:27.548Z,116.97
2023-04-26T00:12:12.564Z,145.14
2023-04-26T00:12:57.674Z,335.01
2023-04-26T00:13:42.783Z,347.94
2023-04-26T00:14:27.877Z,344.95
2023-04-26T00:15:14.417Z,344.95
2023-04-26T00:15:58.407Z,344.95
2023-04-26T00:16:43.985Z,344.95
2023-04-26T00:17:27.937Z,151.10
2023-04-26T00:18:13.135Z,339.98
2023-04-26T00:18:58.554Z,65.61
2023-04-26T00:19:43.897Z,65.61
2023-04-26T00:20:28.435Z,65.61
2023-04-26T00:21:13.042Z,147.70
2023-04-26T00:21:58.245Z,335.01
2023-04-26T00:22:43.231Z,340.98
2023-04-26T00:23:28.370Z,338.25
2023-04-26T00:24:13.422Z,338.25
2023-04-26T00:24:58.465Z,336.26
2023-04-26T00:25:43.357Z,341.24
2023-04-26T00:26:29.093Z,350.19
2023-04-26T00:27:13.702Z,347.21
2023-04-26T00:27:59.722Z,347.21
2023-04-26T00:28:43.963Z,347.21
2023-04-26T00:29:28.927Z,347.21
2023-04-26T00:30:13.568Z,75.61
2023-04-26T00:30:58.511Z,101.48
2023-04-26T00:31:43.708Z,332.28
2023-04-26T00:32:28.970Z,338.25
2023-04-26T00:33:13.782Z,328.30
2023-04-26T00:33:59.054Z,142.26
2023-04-26T00:34:44.270Z,336.26
2023-04-26T00:35:29.413Z,340.24
2023-04-26T00:36:14.517Z,334.27
2023-04-26T00:37:00.047Z,334.27
2023-04-26T00:37:44.732Z,334.27
2023-04-26T00:38:29.822Z,334.27
2023-04-26T00:39:16.488Z,334.27
2023-04-26T00:39:59.540Z,334.27
2023-04-26T00:40:44.666Z,100.43
2023-04-26T00:41:29.604Z,121.00
2023-04-26T00:42:14.849Z,91.19
2023-04-26T00:42:59.919Z,116.58
2023-04-26T00:43:44.786Z,113.11
2023-04-26T00:44:31.270Z,113.11
2023-04-26T00:45:15.166Z,113.11
2023-04-26T00:46:00.549Z,113.11
2023-04-26T00:46:45.450Z,113.11
2023-04-26T00:47:30.502Z,113.11
2023-04-26T00:48:15.326Z,113.11
2023-04-26T00:49:00.685Z,113.11
2023-04-26T00:49:45.897Z,113.11
2023-04-26T00:50:30.591Z,113.11
2023-04-26T00:51:16.083Z,113.11
2023-04-26T00:52:00.948Z,113.11
2023-04-26T00:52:45.738Z,113.11
2023-04-26T00:53:30.747Z,113.11
2023-04-26T00:54:15.770Z,113.11
2023-04-26T00:55:00.824Z,113.11
2023-04-26T00:55:45.907Z,113.11
2023-04-26T00:56:30.938Z,113.11
2023-04-26T00:57:15.942Z,113.11
2023-04-26T00:58:01.712Z,113.11
2023-04-26T00:58:46.017Z,113.11
2023-04-26T00:59:31.449Z,113.11
2023-04-26T01:00:16.594Z,113.11
2023-04-26T01:01:01.124Z,113.11
2023-04-26T01:01:45.960Z,92.76
2023-04-26T01:02:31.154Z,144.88
2023-04-26T01:03:16.434Z,144.88
2023-04-26T01:04:01.560Z,137.46
2023-04-26T01:04:45.893Z,101.45
2023-04-26T01:05:30.999Z,133.00
2023-04-26T01:06:15.962Z,133.00
2023-04-26T01:07:01.588Z,94.50
2023-04-26T01:07:46.598Z,112.42
2023-04-26T01:08:31.564Z,113.11
2023-04-26T01:09:16.635Z,113.11
2023-04-26T01:10:02.606Z,113.11
2023-04-26T01:10:46.701Z,113.11
2023-04-26T01:11:32.478Z,108.56
2023-04-26T01:12:17.540Z,107.23
2023-04-26T01:13:02.014Z,117.46
2023-04-26T01:13:46.923Z,119.58
2023-04-26T01:14:32.402Z,108.81
2023-04-26T01:15:17.410Z,113.80
2023-04-26T01:16:02.410Z,113.80
2023-04-26T01:16:47.286Z,113.80
2023-04-26T01:17:33.480Z,109.90
2023-04-26T01:18:18.295Z,107.90
2023-04-26T01:19:02.240Z,110.85
2023-04-26T01:19:47.383Z,113.11
2023-04-26T01:20:32.231Z,111.72
2023-04-26T01:21:17.104Z,114.63
2023-04-26T01:22:02.591Z,116.75
2023-04-26T01:22:47.697Z,118.88
2023-04-26T01:23:32.568Z,116.04
2023-04-26T01:24:17.722Z,114.63
2023-04-26T01:25:02.511Z,131.46
2023-04-26T01:25:47.637Z,130.70
2023-04-26T01:26:32.899Z,124.78
2023-04-26T01:27:18.051Z,127.02
2023-04-26T01:28:02.805Z,141.96
2023-04-26T01:28:47.649Z,142.74
2023-04-26T01:29:32.806Z,142.74
2023-04-26T01:30:17.963Z,193.53
2023-04-26T01:31:03.160Z,164.06
2023-04-26T01:31:48.236Z,209.82
2023-04-26T01:32:33.154Z,176.98
2023-04-26T01:33:18.361Z,211.61
2023-04-26T01:34:03.161Z,212.50
2023-04-26T01:34:48.960Z,199.23
2023-04-26T01:35:33.174Z,188.53
2023-04-26T01:36:19.147Z,189.78
2023-04-26T01:37:03.266Z,193.53
2023-04-26T01:37:48.605Z,197.87
2023-04-26T01:38:33.390Z,208.00
2023-04-26T01:39:18.790Z,207.15
2023-04-26T01:40:03.497Z,190.06
2023-04-26T01:40:48.448Z,166.14
2023-04-26T01:41:33.607Z,153.86
2023-04-26T01:42:18.977Z,164.50
2023-04-26T01:43:03.518Z,164.50
2023-04-26T01:43:48.673Z,145.88
2023-04-26T01:44:33.693Z,145.10
2023-04-26T01:45:19.441Z,143.62
2023-04-26T01:46:04.190Z,167.78
2023-04-26T01:46:49.206Z,167.78
2023-04-26T01:47:34.320Z,139.78
2023-04-26T01:48:19.651Z,124.04
2023-04-26T01:49:04.328Z,97.42
2023-04-26T01:49:49.338Z,99.55
2023-04-26T01:50:34.441Z,104.09
2023-04-26T01:51:19.512Z,104.09
2023-04-26T01:52:04.430Z,98.36
2023-04-26T01:52:49.502Z,103.83
2023-04-26T01:53:34.976Z,108.95
2023-04-26T01:54:19.909Z,108.97
2023-04-26T01:55:06.796Z,101.90
2023-04-26T01:55:49.795Z,101.90
2023-04-26T01:56:34.948Z,101.90
2023-04-26T01:57:20.035Z,101.90
2023-04-26T01:58:05.172Z,101.90
2023-04-26T01:58:50.115Z,101.90
2023-04-26T01:59:35.375Z,101.90
2023-04-26T02:00:20.719Z,101.90
2023-04-26T02:01:06.285Z,101.90
2023-04-26T02:01:50.108Z,101.90
2023-04-26T02:02:37.256Z,114.32
2023-04-26T02:03:20.654Z,331.71
2023-04-26T02:04:04.988Z,335.69
2023-04-26T02:04:50.405Z,125.53
2023-04-26T02:05:35.280Z,111.72
2023-04-26T02:06:22.631Z,111.72
2023-04-26T02:07:05.651Z,111.72
2023-04-26T02:07:50.680Z,111.72
2023-04-26T02:08:35.947Z,111.72
2023-04-26T02:09:20.944Z,111.72
2023-04-26T02:10:05.966Z,111.72
2023-04-26T02:10:50.912Z,111.72
2023-04-26T02:11:35.865Z,111.72
2023-04-26T02:12:21.073Z,111.72
2023-04-26T02:13:06.487Z,111.72
2023-04-26T02:13:52.067Z,111.72
2023-04-26T02:14:35.785Z,149.23
2023-04-26T02:15:20.856Z,105.42
2023-04-26T02:16:06.391Z,105.42
2023-04-26T02:16:51.262Z,105.42
2023-04-26T02:17:37.760Z,105.42
2023-04-26T02:18:21.274Z,88.92
2023-04-26T02:19:07.263Z,88.92
2023-04-26T02:19:50.975Z,157.61
2023-04-26T02:20:36.244Z,145.43
2023-04-26T02:21:21.096Z,156.02
2023-04-26T02:22:06.466Z,100.87
2023-04-26T02:22:52.214Z,100.87
2023-04-26T02:23:36.796Z,100.87
2023-04-26T02:24:21.793Z,100.87
2023-04-26T02:25:07.094Z,100.87
2023-04-26T02:25:51.910Z,100.87
2023-04-26T02:26:36.975Z,100.87
2023-04-26T02:27:21.849Z,100.87
2023-04-26T02:28:07.183Z,100.87
2023-04-26T02:28:52.656Z,119.03
2023-04-26T02:29:44.402Z,130.19
2023-04-26T02:30:21.654Z,329.72
2023-04-26T02:31:06.852Z,125.53
2023-04-26T02:31:52.131Z,127.77
2023-04-26T02:32:38.840Z,127.77
2023-04-26T02:33:21.890Z,127.77
2023-04-26T02:34:06.948Z,114.65
2023-04-26T02:34:51.699Z,118.17
2023-04-26T02:35:36.889Z,118.88
2023-04-26T02:36:22.111Z,118.88
2023-04-26T02:37:07.224Z,118.88
2023-04-26T02:37:52.687Z,118.88
2023-04-26T02:38:37.570Z,118.88
2023-04-26T02:39:22.573Z,118.88
2023-04-26T02:40:07.623Z,118.88
2023-04-26T02:40:52.759Z,118.88
2023-04-26T02:41:37.890Z,118.88
2023-04-26T02:42:22.875Z,118.88
2023-04-26T02:43:07.190Z,97.15
2023-04-26T02:43:52.573Z,95.90
2023-04-26T02:44:38.027Z,95.90
2023-04-26T02:45:22.283Z,95.90
2023-04-26T02:46:07.354Z,124.33
2023-04-26T02:46:52.778Z,124.33
2023-04-26T02:47:37.597Z,110.33
2023-04-26T02:48:23.729Z,110.33
2023-04-26T02:49:07.872Z,110.33
2023-04-26T02:49:52.986Z,110.33
2023-04-26T02:50:37.774Z,90.90
2023-04-26T02:51:23.544Z,90.90
2023-04-26T02:52:08.198Z,90.90
2023-04-26T02:52:53.876Z,90.90
2023-04-26T02:53:38.165Z,90.90
2023-04-26T02:54:22.754Z,105.43
2023-04-26T02:55:07.969Z,105.43
2023-04-26T02:55:53.376Z,105.43
2023-04-26T02:56:38.688Z,105.43
2023-04-26T02:57:23.486Z,105.43
2023-04-26T02:58:09.604Z,105.43
2023-04-26T02:58:53.965Z,105.43
2023-04-26T02:59:41.728Z,105.43
2023-04-26T03:00:24.829Z,105.43
2023-04-26T03:01:10.786Z,81.52
2023-04-26T03:01:53.449Z,103.11
2023-04-26T03:02:38.742Z,109.84
2023-04-26T03:03:23.945Z,103.31
2023-04-26T03:04:08.928Z,89.16
2023-04-26T03:04:53.383Z,122.34
2023-04-26T03:05:38.757Z,102.47
2023-04-26T03:06:24.690Z,102.47
2023-04-26T03:07:08.964Z,102.47
2023-04-26T03:07:54.775Z,102.47
2023-04-26T03:08:39.473Z,102.47
2023-04-26T03:09:24.447Z,102.47
2023-04-26T03:10:09.085Z,104.72
2023-04-26T03:10:54.446Z,104.72
2023-04-26T03:11:39.476Z,104.72
2023-04-26T03:12:24.857Z,104.72
2023-04-26T03:13:10.531Z,104.72
2023-04-26T03:13:54.860Z,104.72
2023-04-26T03:14:39.400Z,85.57
2023-04-26T03:15:23.958Z,98.06
2023-04-26T03:16:09.527Z,105.27
2023-04-26T03:16:55.851Z,105.27
2023-04-26T03:17:39.942Z,105.27
2023-04-26T03:18:25.014Z,105.27
2023-04-26T03:19:09.105Z,104.86
2023-04-26T03:19:54.502Z,84.33
2023-04-26T03:20:40.347Z,101.67
2023-04-26T03:21:24.678Z,103.11
2023-04-26T03:22:09.528Z,104.55
2023-04-26T03:22:55.194Z,100.22
2023-04-26T03:23:39.955Z,101.67
2023-04-26T03:24:25.122Z,96.23
2023-04-26T03:25:10.276Z,96.23
2023-04-26T03:25:55.143Z,86.17
2023-04-26T03:26:39.930Z,105.99
2023-04-26T03:27:25.348Z,101.89
2023-04-26T03:28:10.194Z,97.34
2023-04-26T03:28:55.103Z,105.36
2023-04-26T03:29:40.295Z,100.95
2023-04-26T03:30:25.067Z,104.02
2023-04-26T03:31:10.519Z,104.02
2023-04-26T03:31:55.355Z,99.23
2023-04-26T03:32:40.178Z,103.31
2023-04-26T03:33:25.278Z,103.31
2023-04-26T03:34:10.805Z,135.86
2023-04-26T03:34:55.730Z,143.53
2023-04-26T03:35:40.419Z,129.75
2023-04-26T03:36:25.462Z,134.22
2023-04-26T03:37:10.875Z,128.16
2023-04-26T03:37:57.984Z,159.29
2023-04-26T03:38:41.096Z,134.59
2023-04-26T03:39:25.689Z,183.88
2023-04-26T03:40:10.702Z,139.58
2023-04-26T03:40:55.743Z,332.51
2023-04-26T03:41:40.631Z,193.73
2023-04-26T03:42:26.180Z,193.73
2023-04-26T03:43:11.424Z,176.10
2023-04-26T03:43:55.767Z,179.64
2023-04-26T03:44:41.318Z,163.90
2023-04-26T03:45:26.080Z,143.43
2023-04-26T03:46:11.658Z,147.58
2023-04-26T03:46:56.757Z,162.21
2023-04-26T03:47:41.405Z,194.49
2023-04-26T03:48:26.618Z,202.08
2023-04-26T03:49:11.257Z,272.55
2023-04-26T03:49:56.555Z,228.50
2023-04-26T03:50:41.577Z,333.70
2023-04-26T03:51:26.342Z,295.63
2023-04-26T03:52:11.642Z,198.06
2023-04-26T03:52:56.645Z,82.63
2023-04-26T03:53:42.005Z,142.52
2023-04-26T03:54:26.554Z,215.19
2023-04-26T03:55:11.458Z,324.91
2023-04-26T03:55:56.666Z,333.88
2023-04-26T03:56:41.517Z,319.93
2023-04-26T03:57:26.776Z,200.94
2023-04-26T03:58:11.830Z,139.46
2023-04-26T03:58:57.239Z,324.91
2023-04-26T03:59:42.463Z,138.54
2023-04-26T04:00:26.932Z,322.55
2023-04-26T04:01:12.649Z,152.02
2023-04-26T04:01:57.355Z,168.59
2023-04-26T04:02:42.735Z,141.69
2023-04-26T04:03:28.130Z,88.49
2023-04-26T04:04:12.865Z,88.49
2023-04-26T04:04:57.927Z,128.96
2023-04-26T04:05:44.454Z,128.96
2023-04-26T04:06:30.222Z,128.96
2023-04-26T04:07:12.739Z,128.96
2023-04-26T04:07:58.094Z,110.33
2023-04-26T04:08:42.519Z,122.79
2023-04-26T04:09:28.309Z,135.68
2023-04-26T04:10:14.133Z,135.68
2023-04-26T04:11:00.560Z,135.68
2023-04-26T04:11:43.076Z,135.68
2023-04-26T04:12:28.079Z,135.68
2023-04-26T04:13:12.962Z,135.68
2023-04-26T04:13:57.922Z,91.61
2023-04-26T04:14:44.929Z,91.61
2023-04-26T04:15:28.163Z,111.76
2023-04-26T04:16:13.767Z,111.76
2023-04-26T04:16:58.678Z,111.76
2023-04-26T04:17:43.419Z,126.90
2023-04-26T04:18:29.018Z,207.98
2023-04-26T04:19:13.459Z,138.31
2023-04-26T04:19:58.685Z,85.57
2023-04-26T04:20:47.118Z,85.57
2023-04-26T04:21:28.898Z,85.57
2023-04-26T04:22:14.055Z,85.57
2023-04-26T04:22:58.977Z,85.57
2023-04-26T04:23:44.448Z,85.57
2023-04-26T04:24:29.012Z,85.57
2023-04-26T04:25:14.378Z,85.57
2023-04-26T04:25:59.290Z,85.57
2023-04-26T04:26:44.251Z,85.57
2023-04-26T04:27:29.048Z,113.98
2023-04-26T04:28:14.534Z,99.54
2023-04-26T04:28:59.079Z,99.06
2023-04-26T04:29:44.201Z,99.06
2023-04-26T04:30:29.185Z,84.98
2023-04-26T04:31:14.353Z,132.65
2023-04-26T04:31:59.395Z,192.12
2023-04-26T04:32:44.340Z,177.38
2023-04-26T04:33:29.280Z,156.22
2023-04-26T04:34:14.138Z,197.43
2023-04-26T04:34:59.343Z,213.17
2023-04-26T04:35:44.447Z,193.35
2023-04-26T04:36:29.966Z,179.71
2023-04-26T04:37:14.572Z,160.17
2023-04-26T04:37:59.722Z,160.17
2023-04-26T04:38:44.773Z,147.54
2023-04-26T04:39:30.246Z,151.17
2023-04-26T04:40:14.489Z,138.49
2023-04-26T04:41:00.077Z,141.82
2023-04-26T04:41:45.392Z,131.82
2023-04-26T04:42:30.608Z,128.49
2023-04-26T04:43:15.200Z,124.40
2023-04-26T04:43:59.772Z,118.61
2023-04-26T04:44:45.559Z,118.61
2023-04-26T04:45:30.523Z,139.53
2023-04-26T04:46:15.256Z,89.70
2023-04-26T04:47:00.828Z,89.70
2023-04-26T04:47:46.371Z,89.70
2023-04-26T04:48:30.819Z,89.70
2023-04-26T04:49:15.510Z,89.70
2023-04-26T04:50:01.051Z,89.70
2023-04-26T04:50:45.529Z,89.70
2023-04-26T04:51:30.949Z,89.70
2023-04-26T04:52:16.881Z,106.38
2023-04-26T04:53:00.700Z,106.38
2023-04-26T04:53:46.017Z,106.38
2023-04-26T04:54:31.229Z,106.38
2023-04-26T04:55:17.020Z,106.38
2023-04-26T04:56:01.181Z,106.38
2023-04-26T04:56:46.347Z,106.38
2023-04-26T04:57:30.893Z,109.64
2023-04-26T04:58:16.069Z,115.82
2023-04-26T04:59:01.552Z,115.82
2023-04-26T04:59:46.255Z,115.82
2023-04-26T05:00:31.363Z,115.82
2023-04-26T05:01:16.590Z,113.92
2023-04-26T05:02:01.795Z,113.92
2023-04-26T05:02:47.011Z,113.92
2023-04-26T05:03:31.732Z,113.92
2023-04-26T05:04:17.295Z,113.92
2023-04-26T05:05:02.049Z,113.92
2023-04-26T05:05:46.914Z,113.92
2023-04-26T05:06:31.993Z,113.92
2023-04-26T05:07:17.270Z,113.92
2023-04-26T05:08:02.225Z,113.92
2023-04-26T05:08:47.101Z,113.92
2023-04-26T05:09:32.507Z,113.92
2023-04-26T05:10:17.491Z,113.92
2023-04-26T05:11:02.321Z,113.92
2023-04-26T05:11:48.494Z,113.92
2023-04-26T05:12:33.864Z,113.92
2023-04-26T05:13:17.362Z,113.92
2023-04-26T05:14:02.473Z,113.92
2023-04-26T05:14:47.351Z,137.37
2023-04-26T05:15:32.761Z,137.37
2023-04-26T05:16:18.384Z,137.37
2023-04-26T05:17:02.557Z,137.37
2023-04-26T05:17:47.583Z,137.37
2023-04-26T05:18:32.705Z,137.37
2023-04-26T05:19:19.396Z,137.37
2023-04-26T05:20:02.640Z,149.44
2023-04-26T05:20:47.751Z,155.99
2023-04-26T05:21:32.800Z,157.64
2023-04-26T05:22:17.795Z,157.64
2023-04-26T05:23:03.074Z,98.67
2023-04-26T05:23:49.194Z,134.62
2023-04-26T05:24:34.691Z,134.62
2023-04-26T05:25:19.775Z,134.62
2023-04-26T05:26:03.288Z,164.89
2023-04-26T05:26:48.091Z,161.85
2023-04-26T05:27:33.054Z,152.13
2023-04-26T05:28:18.308Z,151.68
2023-04-26T05:29:03.277Z,151.68
2023-04-26T05:29:48.418Z,156.53
2023-04-26T05:30:33.988Z,150.94
2023-04-26T05:31:18.555Z,156.17
2023-04-26T05:32:03.533Z,167.06
2023-04-26T05:32:48.949Z,161.85
2023-04-26T05:33:33.396Z,162.94
2023-04-26T05:34:18.868Z,155.01
2023-04-26T05:35:03.873Z,144.93
2023-04-26T05:35:48.566Z,151.98
2023-04-26T05:36:33.821Z,156.53
2023-04-26T05:37:19.100Z,149.44
2023-04-26T05:38:04.458Z,149.44
2023-04-26T05:38:50.940Z,149.44
2023-04-26T05:39:34.316Z,149.44
2023-04-26T05:40:19.763Z,149.44
2023-04-26T05:41:04.138Z,123.57
2023-04-26T05:41:49.937Z,140.87
2023-04-26T05:42:34.479Z,134.11
2023-04-26T05:43:19.324Z,143.49
2023-04-26T05:44:04.603Z,143.49
2023-04-26T05:44:49.458Z,143.49
2023-04-26T05:45:34.743Z,143.49
2023-04-26T05:46:19.998Z,143.49
2023-04-26T05:47:04.421Z,145.06
2023-04-26T05:47:49.713Z,171.44
2023-04-26T05:48:34.416Z,171.44
2023-04-26T05:49:20.593Z,170.35
2023-04-26T05:50:04.834Z,198.09
2023-04-26T05:50:49.817Z,185.50
2023-04-26T05:51:34.923Z,165.26
2023-04-26T05:52:20.310Z,150.94
2023-04-26T05:53:05.075Z,152.43
2023-04-26T05:53:50.434Z,152.43
2023-04-26T05:54:37.022Z,141.52
2023-04-26T05:55:21.607Z,141.52
2023-04-26T05:56:07.510Z,141.52
2023-04-26T05:56:50.663Z,145.70
2023-04-26T05:57:35.333Z,145.70
2023-04-26T05:58:20.866Z,162.94
2023-04-26T05:59:05.512Z,162.61
2023-04-26T05:59:50.640Z,170.98
2023-04-26T06:00:35.485Z,192.67
2023-04-26T06:01:21.515Z,199.77
2023-04-26T06:02:05.926Z,100.89
2023-04-26T06:02:50.832Z,323.84
2023-04-26T06:03:36.431Z,146.01
2023-04-26T06:04:21.419Z,118.51
2023-04-26T06:05:06.310Z,192.21
2023-04-26T06:05:51.258Z,188.53
2023-04-26T06:06:36.194Z,172.61
2023-04-26T06:07:21.124Z,172.07
2023-04-26T06:08:06.470Z,135.39
2023-04-26T06:08:51.590Z,155.28
2023-04-26T06:09:36.509Z,203.79
2023-04-26T06:10:21.798Z,135.33
2023-04-26T06:11:06.837Z,149.70
2023-04-26T06:11:51.673Z,135.56
2023-04-26T06:12:36.645Z,129.49
2023-04-26T06:13:22.722Z,133.29
2023-04-26T06:14:10.468Z,133.29
2023-04-26T06:14:52.006Z,133.29
2023-04-26T06:15:37.071Z,133.29
2023-04-26T06:16:22.366Z,133.29
2023-04-26T06:17:07.423Z,133.29
2023-04-26T06:17:52.362Z,133.29
2023-04-26T06:18:37.285Z,133.29
2023-04-26T06:19:22.259Z,133.29
2023-04-26T06:20:07.198Z,128.42
2023-04-26T06:20:52.041Z,114.29
2023-04-26T06:21:37.360Z,95.68
2023-04-26T06:22:22.260Z,95.68
2023-04-26T06:23:07.693Z,153.49
2023-04-26T06:23:53.432Z,101.02
2023-04-26T06:24:37.532Z,101.02
2023-04-26T06:25:22.915Z,101.02
2023-04-26T06:26:07.588Z,101.02
2023-04-26T06:26:53.232Z,101.02
2023-04-26T06:27:37.553Z,101.02
2023-04-26T06:28:22.722Z,128.52
2023-04-26T06:29:09.658Z,92.18
2023-04-26T06:29:53.237Z,133.60
2023-04-26T06:30:37.934Z,121.05
2023-04-26T06:31:23.538Z,121.05
2023-04-26T06:32:08.522Z,121.05
2023-04-26T06:32:53.597Z,121.05
2023-04-26T06:33:38.209Z,121.05
2023-04-26T06:34:23.182Z,113.21
2023-04-26T06:35:07.823Z,122.01
2023-04-26T06:35:53.281Z,122.01
2023-04-26T06:36:38.134Z,329.19
2023-04-26T06:37:23.498Z,148.69
2023-04-26T06:38:08.065Z,130.76
2023-04-26T06:38:53.399Z,332.18
2023-04-26T06:39:40.049Z,332.18
2023-04-26T06:40:24.058Z,152.62
2023-04-26T06:41:08.549Z,328.19
2023-04-26T06:41:54.426Z,336.17
2023-04-26T06:42:38.806Z,149.63
2023-04-26T06:43:26.218Z,90.65
2023-04-26T06:44:09.002Z,112.46
2023-04-26T06:44:53.855Z,113.21
2023-04-26T06:45:40.502Z,343.15
2023-04-26T06:46:23.870Z,113.22
2023-04-26T06:47:09.038Z,144.64
2023-04-26T06:47:53.737Z,326.20
2023-04-26T06:48:39.153Z,347.14
2023-04-26T06:49:25.634Z,347.14
2023-04-26T06:50:09.111Z,347.14
2023-04-26T06:50:54.425Z,347.14
2023-04-26T06:51:39.493Z,347.14
2023-04-26T06:52:24.730Z,347.14
2023-04-26T06:53:08.988Z,191.13
2023-04-26T06:53:55.094Z,333.18
2023-04-26T06:54:46.344Z,154.62
2023-04-26T06:55:24.257Z,336.87
2023-04-26T06:56:09.615Z,339.86
2023-04-26T06:56:54.663Z,339.86
2023-04-26T06:57:39.303Z,333.70
2023-04-26T06:58:24.879Z,346.15
2023-04-26T06:59:09.953Z,331.71
2023-04-26T06:59:55.314Z,337.17
2023-04-26T07:00:39.861Z,332.18
2023-04-26T07:01:25.227Z,343.15
2023-04-26T07:02:09.875Z,336.87
2023-04-26T07:02:55.289Z,331.89
2023-04-26T07:03:40.831Z,338.86
2023-04-26T07:04:25.336Z,337.17
2023-04-26T07:05:10.614Z,327.19
2023-04-26T07:05:55.994Z,342.16
2023-04-26T07:06:39.994Z,125.69
2023-04-26T07:07:25.526Z,330.19
2023-04-26T07:08:10.522Z,325.20
2023-04-26T07:08:55.486Z,130.56
2023-04-26T07:09:40.433Z,135.55
2023-04-26T07:10:25.187Z,63.79
2023-04-26T07:11:10.851Z,63.79
2023-04-26T07:11:56.126Z,63.79
2023-04-26T07:12:40.950Z,77.74
2023-04-26T07:13:26.079Z,77.74
2023-04-26T07:14:10.770Z,336.17
2023-04-26T07:14:55.515Z,356.80
2023-04-26T07:15:41.412Z,355.81
2023-04-26T07:16:25.981Z,334.88
2023-04-26T07:17:11.085Z,364.78
2023-04-26T07:17:55.965Z,352.82
2023-04-26T07:18:40.890Z,361.79
2023-04-26T07:19:26.046Z,360.11
2023-04-26T07:20:10.704Z,358.61
2023-04-26T07:20:55.969Z,358.80
2023-04-26T07:21:41.161Z,363.78
2023-04-26T07:22:26.169Z,354.81
2023-04-26T07:23:11.133Z,345.84
2023-04-26T07:23:56.177Z,159.81
2023-04-26T07:24:41.661Z,373.32
2023-04-26T07:25:26.250Z,367.77
2023-04-26T07:26:11.870Z,364.78
2023-04-26T07:26:57.093Z,362.78
2023-04-26T07:27:41.467Z,362.78
2023-04-26T07:28:26.652Z,360.38
2023-04-26T07:29:11.680Z,362.78
2023-04-26T07:29:56.733Z,360.79
2023-04-26T07:30:41.832Z,361.79
2023-04-26T07:31:27.040Z,339.68
2023-04-26T07:32:12.090Z,337.17
2023-04-26T07:32:57.151Z,177.04
2023-04-26T07:33:42.052Z,142.65
2023-04-26T07:34:27.357Z,345.15
2023-04-26T07:35:12.150Z,345.15
2023-04-26T07:35:57.503Z,351.13
2023-04-26T07:36:41.853Z,349.14
2023-04-26T07:37:27.223Z,356.12
2023-04-26T07:38:12.421Z,342.16
2023-04-26T07:38:57.304Z,351.13
2023-04-26T07:39:42.293Z,352.13
2023-04-26T07:40:27.190Z,344.15
2023-04-26T07:41:12.489Z,350.14
2023-04-26T07:41:57.329Z,363.10
2023-04-26T07:42:42.712Z,370.09
2023-04-26T07:43:27.456Z,360.11
2023-04-26T07:44:12.297Z,354.81
2023-04-26T07:44:57.702Z,354.81
2023-04-26T07:45:43.006Z,354.13
2023-04-26T07:46:27.987Z,338.17
2023-04-26T07:47:12.523Z,334.88
2023-04-26T07:47:58.234Z,353.81
2023-04-26T07:48:43.155Z,345.84
2023-04-26T07:49:27.837Z,347.65
2023-04-26T07:50:13.165Z,346.84
2023-04-26T07:50:58.214Z,345.84
2023-04-26T07:51:43.286Z,350.82
2023-04-26T07:52:28.445Z,348.83
2023-04-26T07:53:14.037Z,358.80
2023-04-26T07:53:58.700Z,343.85
2023-04-26T07:54:43.591Z,342.85
2023-04-26T07:55:28.633Z,348.64
2023-04-26T07:56:13.882Z,341.67
2023-04-26T07:56:58.565Z,343.66
2023-04-26T07:57:43.992Z,345.66
2023-04-26T07:58:28.789Z,351.63
2023-04-26T07:59:13.531Z,349.64
2023-04-26T07:59:58.782Z,353.62
2023-04-26T08:00:44.153Z,350.64
2023-04-26T08:01:28.799Z,342.23
2023-04-26T08:02:14.406Z,358.61
2023-04-26T08:02:59.554Z,343.23
2023-04-26T08:03:44.667Z,354.62
2023-04-26T08:04:29.698Z,356.80
2023-04-26T08:05:14.514Z,358.80
2023-04-26T08:05:59.874Z,360.79
2023-04-26T08:06:44.450Z,357.61
2023-04-26T08:07:29.446Z,356.61
2023-04-26T08:08:15.420Z,356.61
2023-04-26T08:08:59.591Z,372.55
2023-04-26T08:09:44.519Z,359.14
2023-04-26T08:10:30.038Z,359.14
2023-04-26T08:11:14.846Z,367.57
2023-04-26T08:12:00.251Z,128.38
2023-04-26T08:12:44.664Z,372.55
2023-04-26T08:13:29.814Z,355.16
2023-04-26T08:14:14.836Z,368.57
2023-04-26T08:14:59.718Z,365.11
2023-04-26T08:15:44.968Z,249.68
2023-04-26T08:16:30.349Z,374.54
2023-04-26T08:17:15.034Z,369.56
2023-04-26T08:18:00.115Z,372.55
2023-04-26T08:18:46.838Z,364.58
2023-04-26T08:19:29.848Z,374.54
2023-04-26T08:20:14.699Z,374.54
2023-04-26T08:20:59.877Z,365.58
2023-04-26T08:21:45.039Z,367.10
2023-04-26T08:22:30.270Z,372.55
2023-04-26T08:23:15.143Z,366.57
2023-04-26T08:24:00.011Z,341.67
2023-04-26T08:24:45.128Z,153.40
2023-04-26T08:25:30.089Z,344.66
2023-04-26T08:26:15.251Z,346.65
2023-04-26T08:27:00.299Z,370.56
2023-04-26T08:27:45.518Z,338.68
2023-04-26T08:28:30.528Z,171.51
2023-04-26T08:29:15.180Z,331.89
2023-04-26T08:30:00.431Z,339.86
2023-04-26T08:30:45.528Z,340.86
2023-04-26T08:31:30.880Z,345.84
2023-04-26T08:32:15.593Z,347.83
2023-04-26T08:33:00.789Z,336.87
2023-04-26T08:33:45.818Z,346.84
2023-04-26T08:34:31.440Z,346.84
2023-04-26T08:35:15.931Z,357.61
2023-04-26T08:36:00.986Z,320.56
2023-04-26T08:36:46.609Z,341.85
2023-04-26T08:37:30.993Z,348.83
2023-04-26T08:38:17.283Z,344.66
2023-04-26T08:39:01.715Z,381.52
2023-04-26T08:39:46.470Z,384.50
2023-04-26T08:40:31.349Z,382.51
2023-04-26T08:41:16.579Z,383.51
2023-04-26T08:42:01.431Z,388.49
2023-04-26T08:42:46.446Z,386.50
2023-04-26T08:43:31.658Z,382.51
2023-04-26T08:44:16.899Z,386.70
2023-04-26T08:45:01.670Z,397.67
2023-04-26T08:45:46.444Z,374.74
2023-04-26T08:46:31.956Z,374.74
2023-04-26T08:47:17.319Z,388.70
2023-04-26T08:48:03.238Z,383.71
2023-04-26T08:48:46.946Z,399.66
2023-04-26T08:49:32.136Z,390.69
2023-04-26T08:50:17.300Z,386.70
2023-04-26T08:51:02.024Z,398.66
2023-04-26T08:51:47.204Z,402.65
2023-04-26T08:52:32.536Z,399.66
2023-04-26T08:53:17.338Z,391.69
2023-04-26T08:54:03.433Z,402.65
2023-04-26T08:54:47.072Z,401.20
2023-04-26T08:55:32.347Z,292.93
2023-04-26T08:56:17.945Z,407.63
2023-04-26T08:57:02.462Z,409.63
2023-04-26T08:57:47.414Z,404.64
2023-04-26T08:58:32.673Z,306.59
2023-04-26T08:59:17.737Z,371.75
2023-04-26T09:00:02.686Z,371.75
2023-04-26T09:00:47.592Z,329.14
2023-04-26T09:01:32.640Z,394.03
2023-04-26T09:02:18.251Z,392.03
2023-04-26T09:03:03.108Z,383.05
2023-04-26T09:03:47.921Z,399.02
2023-04-26T09:04:33.229Z,396.02
2023-04-26T09:05:18.212Z,396.02
2023-04-26T09:06:04.517Z,397.02
2023-04-26T09:06:48.118Z,404.00
2023-04-26T09:07:33.150Z,378.07
2023-04-26T09:08:18.239Z,403.43
2023-04-26T09:09:02.989Z,389.04
2023-04-26T09:09:48.883Z,391.04
2023-04-26T09:10:33.384Z,391.04
2023-04-26T09:11:18.189Z,389.04
2023-04-26T09:12:03.394Z,389.04
2023-04-26T09:12:48.235Z,391.04
2023-04-26T09:13:33.211Z,385.05
2023-04-26T09:14:18.802Z,399.02
2023-04-26T09:15:03.452Z,393.03
2023-04-26T09:15:49.007Z,398.02
2023-04-26T09:16:33.563Z,378.07
2023-04-26T09:17:18.953Z,384.05
2023-04-26T09:18:03.806Z,388.04
2023-04-26T09:18:48.891Z,385.05
2023-04-26T09:19:34.389Z,374.08
2023-04-26T09:20:19.284Z,369.09
2023-04-26T09:21:04.194Z,388.04
2023-04-26T09:21:48.872Z,388.04
2023-04-26T09:22:34.074Z,137.66
2023-04-26T09:23:19.140Z,386.05